Badger, South Dakota
Current Conditions -  °F | °C
As of 11:53 PM on Thursday 30 Oct 2014 (Local Time) from KATY Reporting Station
Clear Clear  
Wind Chill: 14°   Ceiling: Unl
Heat Index: 24°   Visibility: 10mi
Dew Point: 19°   Wind: 10mph
Humidity: 81%   Direction: 360°N
Pressure: 30.49"   Gusts: NA
Location:  44.49°N, 97.2°W
Report Text: KATY 310453Z AUTO 36009KT 10SM CLR M04/M07 A3049 RMK AO2 SLP346 T10441072
Loading
Personal Weather Stations






























Interactive Weather Map
Tropical Storm Tracking
New forecast layout! Learn more

10-Day Weather Forecast

Advertisements
Track Severe Weather on mobile